Corunna, MI

03:29 AM EDT die 01o September, anno 2014 (GMT -0400)
Fayette Square | Change Station
CLOSE
Current Station
Personal Weather Stations
Location: Owosso, MI
Elevation: 764 ft
Nearby Weather Stations

Elev 764 ft 43.00 °N, 84.17 °W | Updated 1 second ago

Clear
Serena
68.0 °F
Feels Like 68.0 °F
N
3.4
Ventus Variabilis Ventus from Inter Austrum et Zephyrum
Gusts 3.4 mph

Hodie
High -- | Low -- °F
--% Chance of Precip.
Yesterday
High -- | Low -- °F
Precip. -- in
7:00 AM 8:10 PM
Waxing Crescent, 38% visible
Pressio 29.91 in
Visibilitas 7.0 milia passuum
Clouds Serena
Frigus in quo Ros apparet 65 °F
Umor 90%
Rainfall 0.00 in
Snow Depth Not available.
UV 0 out of 12
Pollen 5.80 out of 12
Ozone Good
PM2.5 Moderate
Flu Activity Not available.
METAR KRNP 010714Z AUTO 00000KT 7SM CLR 16/16 A2991 RMK AO2 T01590159

More Conditions Fewer Conditions

Pressio 29.91 in
Visibilitas 7.0 milia passuum
Clouds Serena
Frigus in quo Ros apparet 65 °F
Umor 90%
Rainfall 0.00 in
Snow Depth Not available.
UV 0 out of 12
Pollen 5.80 out of 12
Ozone Good
PM2.5 Moderate
Flu Activity Not available.
METAR KRNP 010714Z AUTO 00000KT 7SM CLR 16/16 A2991 RMK AO2 T01590159

More Conditions Fewer Conditions

10-Day Weather Forecast

Almanac

Astronomy

Sep. 01, 2014 Rise Set
Actual Time 7:00 AM EDT 8:10 PM EDT
Civil Twilight 6:31 AM EDT 8:40 PM EDT
Nautical Twilight 5:56 AM EDT 9:15 PM EDT
Astronomical Twilight 5:19 AM EDT 9:51 PM EDT
Moon 1:55 PM EDT Nulla Occasus Lunae
Length Of Visible Light 14h 08m
Length of Day
13h 10m
Tomorrow will be 2m 49s shorter.
Waxing Crescent, 38% of the Moon is Illuminated
Hodie
Waxing Crescent
Sep 2
First Quarter
Sep 8
Full
Sep 15
Last Quarter
Sep 24
New

Today's Extremes

State Highs State Lows

Community

WunderPhotos

Upload Photos

1,749,154 photos uploaded!

Nearby

Air Quality

  Air Quality AQ Index Pollutant
Yesterday Good
PM2.5
Yesterday Good
OZONE
Current Moderate
PM2.5
Current Good
OZONE
Die Lunae Good
OZONE
Die Lunae Good
PM2.5
Die Martis Good
OZONE
Die Martis Good
PM2.5

Snow Depth

Station Depth Elevation
No new snow has been reported.

Earthquake Activity

City Distance Mag. Time & Date
No recent earthquake activity has been reported nearby.
Minimum magnitude displayed is 2.5.

Coastal Water Temperatures

Locus Calor
No Stations Reporting

Nearby Weather Stations